createdAt,value
2017-07-12T00:01:10.681Z,100212
2017-07-12T00:03:38.444Z,100212
2017-07-12T00:06:05.733Z,100207
2017-07-12T00:08:33.015Z,100204
2017-07-12T00:11:00.828Z,100204
2017-07-12T00:13:28.126Z,100201
2017-07-12T00:15:55.430Z,100208
2017-07-12T00:18:22.752Z,100212
2017-07-12T00:20:50.279Z,100214
2017-07-12T00:23:17.603Z,100211
2017-07-12T00:25:44.894Z,100209
2017-07-12T00:28:12.411Z,100208
2017-07-12T00:30:39.704Z,100204
2017-07-12T00:33:07.020Z,100198
2017-07-12T00:35:34.476Z,100196
2017-07-12T00:38:01.762Z,100190
2017-07-12T00:40:29.211Z,100189
2017-07-12T00:42:56.773Z,100187
2017-07-12T00:45:24.074Z,100193
2017-07-12T00:47:51.378Z,100181
2017-07-12T00:50:18.673Z,100177
2017-07-12T00:52:45.965Z,100173
2017-07-12T00:55:13.269Z,100169
2017-07-12T00:57:40.600Z,100163
2017-07-12T01:00:08.056Z,100156
2017-07-12T01:02:35.492Z,100155
2017-07-12T01:05:02.971Z,100155
2017-07-12T01:07:30.260Z,100155
2017-07-12T01:09:57.542Z,100160
2017-07-12T01:12:24.841Z,100155
2017-07-12T01:14:52.147Z,100160
2017-07-12T01:17:19.447Z,100154
2017-07-12T01:19:46.745Z,100153
2017-07-12T01:22:14.031Z,100156
2017-07-12T01:24:41.332Z,100156
2017-07-12T01:27:08.660Z,100152
2017-07-12T01:29:35.967Z,100154
2017-07-12T01:32:03.262Z,100147
2017-07-12T01:34:30.553Z,100142
2017-07-12T01:36:57.852Z,100134
2017-07-12T01:39:25.224Z,100125
2017-07-12T01:41:52.508Z,100122
2017-07-12T01:44:20.204Z,100127
2017-07-12T01:46:47.662Z,100119
2017-07-12T01:49:14.951Z,100114
2017-07-12T01:51:42.232Z,100114
2017-07-12T01:54:10.034Z,100114
2017-07-12T01:56:37.341Z,100115
2017-07-12T01:59:04.649Z,100127
2017-07-12T02:01:31.949Z,100114
2017-07-12T02:03:59.245Z,100122
2017-07-12T02:06:26.550Z,100115
2017-07-12T02:08:53.862Z,100119
2017-07-12T02:11:21.166Z,100121
2017-07-12T02:13:48.467Z,100111
2017-07-12T02:16:15.756Z,100106
2017-07-12T02:18:43.053Z,100103
2017-07-12T02:21:10.458Z,100100
2017-07-12T02:23:37.757Z,100095
2017-07-12T02:26:05.062Z,100087
2017-07-12T02:28:32.372Z,100084
2017-07-12T02:30:59.667Z,100088
2017-07-12T02:33:26.950Z,100090
2017-07-12T02:35:54.254Z,100083
2017-07-12T02:38:21.806Z,100078
2017-07-12T02:40:49.189Z,100083
2017-07-12T02:43:16.491Z,100076
2017-07-12T02:45:43.794Z,100073
2017-07-12T02:48:11.091Z,100068
2017-07-12T02:50:38.384Z,100060
2017-07-12T02:53:05.679Z,100062
2017-07-12T02:55:32.977Z,100064
2017-07-12T02:58:00.465Z,100057
2017-07-12T03:00:27.934Z,100052
2017-07-12T03:02:55.468Z,100044
2017-07-12T03:05:22.764Z,100049
2017-07-12T03:07:50.047Z,100042
2017-07-12T03:10:17.359Z,100036
2017-07-12T03:12:44.807Z,100039
2017-07-12T03:15:12.091Z,100040
2017-07-12T03:17:39.794Z,100033
2017-07-12T03:20:07.286Z,100033
2017-07-12T03:22:34.578Z,100027
2017-07-12T03:25:01.853Z,100028
2017-07-12T03:27:29.135Z,100020
2017-07-12T03:29:56.490Z,100020
2017-07-12T03:32:23.783Z,100016
2017-07-12T03:34:51.172Z,100025
2017-07-12T03:37:18.476Z,100023
2017-07-12T03:39:46.020Z,100014
2017-07-12T03:42:13.311Z,100026
2017-07-12T03:44:41.002Z,100013
2017-07-12T03:47:08.305Z,100017
2017-07-12T03:49:35.590Z,100021
2017-07-12T03:52:02.999Z,100012
2017-07-12T03:54:30.523Z,100029
2017-07-12T03:56:57.846Z,100022
2017-07-12T03:59:25.138Z,100008
2017-07-12T04:01:52.450Z,100008
2017-07-12T04:04:19.750Z,100000
2017-07-12T04:06:47.128Z,99999
2017-07-12T04:09:14.420Z,99993
2017-07-12T04:11:41.714Z,99992
2017-07-12T04:14:09.018Z,99985
2017-07-12T04:16:36.320Z,99988
2017-07-12T04:19:03.601Z,99987
2017-07-12T04:21:30.908Z,99982
2017-07-12T04:23:58.187Z,99979
2017-07-12T04:26:25.482Z,99983
2017-07-12T04:28:52.782Z,99972
2017-07-12T04:31:20.089Z,99968
2017-07-12T04:33:47.388Z,99961
2017-07-12T04:36:14.676Z,99970
2017-07-12T04:38:42.295Z,99966
2017-07-12T04:41:09.593Z,99960
2017-07-12T04:43:36.877Z,99964
2017-07-12T04:46:04.291Z,99962
2017-07-12T04:48:31.585Z,99956
2017-07-12T04:50:58.964Z,99949
2017-07-12T04:53:26.261Z,99934
2017-07-12T04:55:53.564Z,99942
2017-07-12T04:58:20.863Z,99945
2017-07-12T05:00:48.419Z,99937
2017-07-12T05:03:15.946Z,99939
2017-07-12T05:05:43.242Z,99936
2017-07-12T05:08:10.792Z,99922
2017-07-12T05:10:38.096Z,99930
2017-07-12T05:13:05.391Z,99925
2017-07-12T05:15:32.857Z,99919
2017-07-12T05:18:00.157Z,99923
2017-07-12T05:20:27.452Z,99919
2017-07-12T05:22:54.742Z,99928
2017-07-12T05:25:22.041Z,99926
2017-07-12T05:27:49.319Z,99914
2017-07-12T05:30:16.450Z,99919
2017-07-12T05:32:43.731Z,99924
2017-07-12T05:35:11.026Z,99921
2017-07-12T05:37:38.325Z,99922
2017-07-12T05:40:05.603Z,99926
2017-07-12T05:42:33.110Z,99899
2017-07-12T05:45:00.394Z,99912
2017-07-12T05:47:27.699Z,99899
2017-07-12T05:49:54.998Z,99902
2017-07-12T05:52:22.283Z,99901
2017-07-12T05:54:49.979Z,99905
2017-07-12T05:57:17.287Z,99893
2017-07-12T05:59:44.592Z,99885
2017-07-12T06:02:11.889Z,99883
2017-07-12T06:04:39.189Z,99891
2017-07-12T06:07:06.483Z,99887
2017-07-12T06:09:33.777Z,99895
2017-07-12T06:12:01.060Z,99887
2017-07-12T06:14:28.340Z,99890
2017-07-12T06:16:55.634Z,99896
2017-07-12T06:19:23.432Z,99896
2017-07-12T06:21:50.890Z,99898
2017-07-12T06:24:18.279Z,99892
2017-07-12T06:26:45.591Z,99892
2017-07-12T06:29:12.889Z,99889
2017-07-12T06:31:40.182Z,99884
2017-07-12T06:34:07.798Z,99892
2017-07-12T06:36:35.257Z,99885
2017-07-12T06:39:02.715Z,99879
2017-07-12T06:41:30.017Z,99873
2017-07-12T06:43:57.392Z,99873
2017-07-12T06:46:24.687Z,99879
2017-07-12T06:48:51.964Z,99881
2017-07-12T06:51:19.658Z,99876
2017-07-12T06:53:46.943Z,99870
2017-07-12T06:56:14.369Z,99863
2017-07-12T06:58:41.826Z,99863
2017-07-12T07:01:09.119Z,99862
2017-07-12T07:03:36.663Z,99854
2017-07-12T07:06:03.944Z,99854
2017-07-12T07:08:31.279Z,99855
2017-07-12T07:10:58.574Z,99835
2017-07-12T07:13:25.883Z,99833
2017-07-12T07:15:53.333Z,99832
2017-07-12T07:18:20.621Z,99831
2017-07-12T07:20:47.909Z,99827
2017-07-12T07:23:15.198Z,99825
2017-07-12T07:25:42.486Z,99820
2017-07-12T07:28:09.768Z,99818
2017-07-12T07:30:37.066Z,99812
2017-07-12T07:33:04.366Z,99805
2017-07-12T07:35:31.640Z,99810
2017-07-12T07:37:58.938Z,99811
2017-07-12T07:40:26.223Z,99817
2017-07-12T07:42:53.501Z,99808
2017-07-12T07:45:20.808Z,99820
2017-07-12T07:47:48.136Z,99821
2017-07-12T07:50:15.593Z,99823
2017-07-12T07:52:42.881Z,99823
2017-07-12T07:55:10.269Z,99823
2017-07-12T07:57:37.551Z,99824
2017-07-12T08:00:04.832Z,99825
2017-07-12T08:02:32.516Z,99817
2017-07-12T08:04:59.799Z,99809
2017-07-12T08:07:27.087Z,99803
2017-07-12T08:09:54.401Z,99807
2017-07-12T08:12:21.693Z,99810
2017-07-12T08:14:48.982Z,99806
2017-07-12T08:17:16.281Z,99810
2017-07-12T08:19:43.583Z,99822
2017-07-12T08:22:11.295Z,99813
2017-07-12T08:24:38.579Z,99811
2017-07-12T08:27:05.881Z,99805
2017-07-12T08:29:33.172Z,99795
2017-07-12T08:32:00.468Z,99796
2017-07-12T08:34:27.744Z,99776
2017-07-12T08:36:55.049Z,99774
2017-07-12T08:39:22.587Z,99773
2017-07-12T08:41:49.863Z,99770
2017-07-12T08:44:17.263Z,99754
2017-07-12T08:46:44.654Z,99740
2017-07-12T08:49:12.107Z,99750
2017-07-12T08:51:39.391Z,99747
2017-07-12T08:54:06.784Z,99746
2017-07-12T08:56:34.089Z,99745
2017-07-12T08:59:01.548Z,99749
2017-07-12T09:01:29.087Z,99750
2017-07-12T09:03:56.923Z,99753
2017-07-12T09:06:24.218Z,99750
2017-07-12T09:08:51.516Z,99762
2017-07-12T09:11:18.984Z,99763
2017-07-12T09:13:46.277Z,99761
2017-07-12T09:16:13.561Z,99766
2017-07-12T09:18:41.248Z,99763
2017-07-12T09:21:08.734Z,99775
2017-07-12T09:23:36.193Z,99770
2017-07-12T09:33:25.236Z,99773
2017-07-12T09:35:52.636Z,99769
2017-07-12T09:38:19.943Z,99757
2017-07-12T09:40:47.257Z,99766
2017-07-12T09:43:14.536Z,99759
2017-07-12T09:45:41.834Z,99762
2017-07-12T09:48:09.134Z,99770
2017-07-12T09:50:36.410Z,99765
2017-07-12T09:53:03.696Z,99766
2017-07-12T09:55:31.007Z,99760
2017-07-12T09:57:58.459Z,99757
2017-07-12T10:00:25.739Z,99755
2017-07-12T10:02:53.041Z,99757
2017-07-12T10:05:20.328Z,99756
2017-07-12T10:07:47.616Z,99746
2017-07-12T10:10:15.117Z,99748
2017-07-12T10:12:42.423Z,99745
2017-07-12T10:15:09.724Z,99756
2017-07-12T10:17:37.008Z,99744
2017-07-12T10:20:04.289Z,99737
2017-07-12T10:22:31.795Z,99730
2017-07-12T10:24:59.252Z,99734
2017-07-12T10:27:26.531Z,99736
2017-07-12T10:29:53.818Z,99732
2017-07-12T10:32:21.090Z,99737
2017-07-12T10:34:48.467Z,99736
2017-07-12T10:37:15.764Z,99732
2017-07-12T10:39:43.051Z,99736
2017-07-12T10:42:10.602Z,99729
2017-07-12T10:44:37.897Z,99733
2017-07-12T10:47:05.202Z,99734
2017-07-12T10:49:32.494Z,99735
2017-07-12T10:52:00.054Z,99729
2017-07-12T10:54:27.345Z,99730
2017-07-12T10:56:54.970Z,99729
2017-07-12T10:59:22.261Z,99725
2017-07-12T11:01:49.590Z,99714
2017-07-12T11:04:16.895Z,99712
2017-07-12T11:06:44.197Z,99715
2017-07-12T11:09:11.639Z,99709
2017-07-12T11:11:38.960Z,99706
2017-07-12T11:14:06.555Z,99700
2017-07-12T11:16:33.850Z,99699
2017-07-12T11:19:01.472Z,99699
2017-07-12T11:21:28.762Z,99691
2017-07-12T11:23:56.042Z,99691
2017-07-12T11:26:23.331Z,99688
2017-07-12T11:28:50.745Z,99684
2017-07-12T11:31:18.134Z,99675
2017-07-12T11:33:45.586Z,99674
2017-07-12T11:36:12.881Z,99664
2017-07-12T11:38:40.178Z,99666
2017-07-12T11:41:07.462Z,99666
2017-07-12T11:43:34.735Z,99664
2017-07-12T11:46:02.040Z,99656
2017-07-12T11:48:29.790Z,99654
2017-07-12T11:50:57.085Z,99651
2017-07-12T11:53:24.373Z,99645
2017-07-12T11:55:52.169Z,99643
2017-07-12T11:58:19.555Z,99644
2017-07-12T12:00:47.012Z,99633
2017-07-12T12:03:14.544Z,99628
2017-07-12T12:05:41.846Z,99633
2017-07-12T12:08:09.148Z,99631
2017-07-12T12:10:36.436Z,99627
2017-07-12T12:13:03.731Z,99631
2017-07-12T12:15:31.209Z,99629
2017-07-12T12:17:58.668Z,99640
2017-07-12T12:20:25.957Z,99635
2017-07-12T12:22:53.249Z,99626
2017-07-12T12:25:20.941Z,99693
2017-07-12T12:27:48.425Z,99734
2017-07-12T12:30:15.728Z,99765
2017-07-12T12:32:43.105Z,99784
2017-07-12T12:35:10.483Z,99791
2017-07-12T12:37:37.755Z,99811
2017-07-12T12:40:05.169Z,99820
2017-07-12T12:42:32.449Z,99846
2017-07-12T12:45:00.011Z,99866
2017-07-12T12:47:27.315Z,99875
2017-07-12T12:49:54.691Z,99900
2017-07-12T12:52:21.979Z,99919
2017-07-12T12:54:49.274Z,99940
2017-07-12T12:57:16.405Z,99962
2017-07-12T12:59:44.137Z,99968
2017-07-12T13:02:11.599Z,99975
2017-07-12T13:04:44.314Z,99984
2017-07-12T13:07:12.043Z,99983
2017-07-12T13:09:39.571Z,99990
2017-07-12T13:12:06.861Z,99997
2017-07-12T13:14:34.167Z,99999
2017-07-12T13:17:01.466Z,100004
2017-07-12T13:19:29.093Z,99988
2017-07-12T13:21:56.397Z,99994
2017-07-12T13:24:23.929Z,99993
2017-07-12T13:26:51.464Z,100011
2017-07-12T13:29:18.852Z,100013
2017-07-12T13:31:46.378Z,100017
2017-07-12T13:34:13.685Z,100009
2017-07-12T13:36:40.977Z,100013
2017-07-12T13:39:08.272Z,100028
2017-07-12T13:41:35.564Z,100051
2017-07-12T13:44:03.259Z,100073
2017-07-12T13:46:30.565Z,100103
2017-07-12T13:48:57.965Z,100111
2017-07-12T13:51:25.355Z,100110
2017-07-12T13:53:52.639Z,100114
2017-07-12T13:56:19.937Z,100122
2017-07-12T13:58:47.219Z,100146
2017-07-12T14:01:14.521Z,100173
2017-07-12T14:03:41.803Z,100176
2017-07-12T14:06:09.079Z,100190
2017-07-12T14:08:36.408Z,100194
2017-07-12T14:11:03.938Z,100193
2017-07-12T14:13:31.241Z,100205
2017-07-12T14:15:58.550Z,100210
2017-07-12T14:18:25.846Z,100208
2017-07-12T14:20:53.152Z,100225
2017-07-12T14:23:20.444Z,100231
2017-07-12T14:25:47.749Z,100235
2017-07-12T14:28:15.035Z,100249
2017-07-12T14:30:42.520Z,100248
2017-07-12T14:33:09.813Z,100259
2017-07-12T14:35:37.435Z,100268
2017-07-12T14:38:04.759Z,100278
2017-07-12T14:40:32.061Z,100288
2017-07-12T14:42:59.376Z,100281
2017-07-12T14:45:26.673Z,100284
2017-07-12T14:47:54.405Z,100291
2017-07-12T14:50:21.687Z,100295
2017-07-12T14:52:48.993Z,100296
2017-07-12T14:55:16.283Z,100297
2017-07-12T14:57:43.694Z,100312
2017-07-12T15:00:11.083Z,100326
2017-07-12T15:02:38.372Z,100356
2017-07-12T15:05:11.263Z,100360
2017-07-12T15:07:38.755Z,100364
2017-07-12T15:10:06.047Z,100378
2017-07-12T15:12:33.591Z,100389
2017-07-12T15:15:00.897Z,100394
2017-07-12T15:17:28.183Z,100406
2017-07-12T15:19:55.474Z,100421
2017-07-12T15:22:22.788Z,100414
2017-07-12T15:24:50.331Z,100441
2017-07-12T15:27:17.766Z,100435
2017-07-12T15:29:46.407Z,100442
2017-07-12T15:32:18.608Z,100457
2017-07-12T15:34:50.149Z,100462
2017-07-12T15:37:18.709Z,100473
2017-07-12T15:39:47.911Z,100480
2017-07-12T15:42:17.309Z,100483
2017-07-12T15:44:47.115Z,100501
2017-07-12T16:03:19.623Z,100560
2017-07-12T16:05:46.910Z,100571
2017-07-12T16:08:14.412Z,100578
2017-07-12T16:10:41.945Z,100580
2017-07-12T16:13:09.403Z,100592
2017-07-12T16:15:37.204Z,100596
2017-07-12T16:18:05.111Z,100608
2017-07-12T16:20:32.885Z,100616
2017-07-12T16:23:00.793Z,100616
2017-07-12T16:25:28.301Z,100624
2017-07-12T16:27:56.216Z,100632
2017-07-12T16:30:24.061Z,100640
2017-07-12T16:32:51.515Z,100636
2017-07-12T16:35:19.061Z,100637
2017-07-12T16:37:46.928Z,100637
2017-07-12T16:40:14.751Z,100654
2017-07-12T16:42:42.049Z,100656
2017-07-12T16:45:09.726Z,100664
2017-07-12T16:47:37.116Z,100673
2017-07-12T16:50:04.416Z,100682
2017-07-12T16:52:32.016Z,100679
2017-07-12T16:54:59.313Z,100694
2017-07-12T16:57:26.708Z,100698
2017-07-12T16:59:54.014Z,100709
2017-07-12T17:02:21.300Z,100712
2017-07-12T17:04:48.582Z,100706
2017-07-12T17:07:16.630Z,100721
2017-07-12T17:09:44.941Z,100725
2017-07-12T17:12:13.024Z,100733
2017-07-12T17:14:41.669Z,100734
2017-07-12T17:17:10.050Z,100735
2017-07-12T17:19:37.992Z,100741
2017-07-12T17:22:05.984Z,100739
2017-07-12T17:24:33.957Z,100752
2017-07-12T17:27:02.004Z,100760
2017-07-12T17:29:30.106Z,100760
2017-07-12T17:31:58.440Z,100769
2017-07-12T17:34:26.548Z,100778
2017-07-12T17:36:54.447Z,100774
2017-07-12T17:39:22.227Z,100782
2017-07-12T17:41:50.303Z,100800
2017-07-12T17:44:18.836Z,100798
2017-07-12T17:46:46.134Z,100809
2017-07-12T17:49:13.683Z,100816
2017-07-12T17:51:41.158Z,100810
2017-07-12T17:54:08.457Z,100821
2017-07-12T17:56:35.761Z,100829
2017-07-12T17:59:03.056Z,100828
2017-07-12T18:01:30.355Z,100830
2017-07-12T18:03:57.635Z,100844
2017-07-12T18:06:25.027Z,100854
2017-07-12T18:08:52.419Z,100856
2017-07-12T18:11:19.951Z,100864
2017-07-12T18:13:47.261Z,100856
2017-07-12T18:16:14.565Z,100877
2017-07-12T18:18:41.869Z,100881
2017-07-12T18:21:09.180Z,100874
2017-07-12T18:23:36.613Z,100880
2017-07-12T18:26:03.911Z,100892
2017-07-12T18:28:31.203Z,100903
2017-07-12T18:30:58.541Z,100902
2017-07-12T18:33:25.849Z,100902
2017-07-12T18:35:53.154Z,100903
2017-07-12T18:38:21.357Z,100911
2017-07-12T18:40:48.753Z,100914
2017-07-12T18:43:16.042Z,100925
2017-07-12T18:45:45.671Z,100933
2017-07-12T18:48:13.020Z,100935
2017-07-12T18:50:40.424Z,100942
2017-07-12T20:35:04.771Z,101111
2017-07-12T20:37:32.094Z,101112
2017-07-12T20:39:59.406Z,101113
2017-07-12T20:42:26.699Z,101124
2017-07-12T20:44:54.105Z,101129
2017-07-12T20:47:21.413Z,101126
2017-07-12T20:49:48.706Z,101138
2017-07-12T20:52:16.002Z,101140
2017-07-12T20:54:43.701Z,101150
2017-07-12T20:57:11.057Z,101152
2017-07-12T20:59:38.374Z,101162
2017-07-12T21:02:05.686Z,101159
2017-07-12T21:04:32.966Z,101167
2017-07-12T21:07:00.295Z,101167
2017-07-12T21:09:27.594Z,101168
2017-07-12T21:11:54.901Z,101173
2017-07-12T21:14:22.244Z,101179
2017-07-12T21:16:49.539Z,101180
2017-07-12T21:19:17.003Z,101180
2017-07-12T21:21:44.697Z,101185
2017-07-12T21:24:11.993Z,101191
2017-07-12T21:26:39.348Z,101189
2017-07-12T21:29:06.874Z,101195
2017-07-12T21:31:33.292Z,101204
2017-07-12T21:33:59.638Z,101205
2017-07-12T21:36:25.833Z,101211
2017-07-12T21:38:52.370Z,101216
2017-07-12T21:41:18.911Z,101211
2017-07-12T21:43:45.649Z,101217
2017-07-12T21:46:11.823Z,101217
2017-07-12T21:48:38.010Z,101224
2017-07-12T21:51:04.387Z,101232
2017-07-12T21:53:36.513Z,101225
2017-07-12T21:56:08.625Z,101234
2017-07-12T21:58:40.834Z,101244
2017-07-12T22:01:13.102Z,101236
2017-07-12T22:03:45.405Z,101237
2017-07-12T22:06:17.651Z,101250
2017-07-12T22:08:49.968Z,101242
2017-07-12T22:11:22.109Z,101253
2017-07-12T22:13:54.204Z,101252
2017-07-12T22:16:26.372Z,101245
2017-07-12T22:18:58.592Z,101254
2017-07-12T22:21:30.957Z,101246
2017-07-12T22:24:04.077Z,101258
2017-07-12T22:26:36.189Z,101256
2017-07-12T22:29:08.517Z,101256
2017-07-12T22:31:40.889Z,101258
2017-07-12T22:34:12.988Z,101259
2017-07-12T22:36:45.716Z,101274
2017-07-12T22:39:19.408Z,101270
2017-07-12T22:41:51.681Z,101269
2017-07-12T22:44:21.012Z,101276
2017-07-12T22:46:49.829Z,101272
2017-07-12T22:49:16.743Z,101279
2017-07-12T22:51:43.276Z,101273
2017-07-12T22:54:10.291Z,101274
2017-07-12T22:56:36.459Z,101277
2017-07-12T22:59:02.657Z,101280
2017-07-12T23:01:30.857Z,101286
2017-07-12T23:03:57.159Z,101292
2017-07-12T23:06:23.724Z,101295
2017-07-12T23:08:49.918Z,101290
2017-07-12T23:11:16.657Z,101293
2017-07-12T23:13:42.846Z,101295
2017-07-12T23:16:09.035Z,101298
2017-07-12T23:18:35.236Z,101296
2017-07-12T23:21:01.706Z,101299
2017-07-12T23:23:27.879Z,101311
2017-07-12T23:25:54.064Z,101308
2017-07-12T23:28:20.249Z,101306
2017-07-12T23:30:46.450Z,101309
2017-07-12T23:33:12.729Z,101314
2017-07-12T23:35:39.077Z,101306
2017-07-12T23:38:05.273Z,101309
2017-07-12T23:40:31.815Z,101311
2017-07-12T23:42:58.971Z,101316
2017-07-12T23:45:25.883Z,101316
2017-07-12T23:47:52.235Z,101321
2017-07-12T23:50:18.470Z,101310
2017-07-12T23:52:44.827Z,101314
2017-07-12T23:55:10.993Z,101314
2017-07-12T23:57:37.596Z,101322
